Time;durP1;ratioP1;P1;durP2;ratioP2;P2;SDS_P1;SDS_P2;PMS_P1;PMS_P2;Temp;Humidity;BMP_temperature;BMP_pressure;BME280_temperature;BME280_humidity;BME280_pressure;Samples;Min_cycle;Max_cycle;Signal;HPM_P1;HPM_P2
2023/04/13 00:00:22;;;;;;;;;;;6.40;72.90;;;;;;4058386;29;19930;-87
2023/04/13 00:02:23;;;;;;;;;;;6.40;73.00;;;;;;4058191;29;20549;-88
2023/04/13 00:04:25;;;;;;;;;;;6.50;73.00;;;;;;4059013;29;19965;-87
2023/04/13 00:06:27;;;;;;;;;;;6.40;73.00;;;;;;4059733;29;19915;-88
2023/04/13 00:08:29;;;;;;;;;;;6.40;73.00;;;;;;4060161;29;19915;-87
2023/04/13 00:10:30;;;;;;;;;;;6.50;73.10;;;;;;4056892;29;19978;-87
2023/04/13 00:12:32;;;;;;;;;;;6.50;73.20;;;;;;4056016;29;19915;-88
2023/04/13 00:14:32;;;;;;;;;;;6.50;73.20;;;;;;4070138;29;20196;-87
2023/04/13 00:16:33;;;;;;;;;;;6.40;73.20;;;;;;4057742;29;19907;-87
2023/04/13 00:18:34;;;;;;;;;;;6.40;73.20;;;;;;4071612;29;19911;-87
2023/04/13 00:20:35;;;;;;;;;;;6.40;73.20;;;;;;4072502;29;20358;-87
2023/04/13 00:22:36;;;;;;;;;;;6.50;73.20;;;;;;4056878;29;20065;-87
2023/04/13 00:24:37;;;;;;;;;;;6.40;73.20;;;;;;4059507;29;19970;-89
2023/04/13 00:26:38;;;;;;;;;;;6.50;73.40;;;;;;4056642;29;20406;-87
2023/04/13 00:28:40;;;;;;;;;;;6.40;73.30;;;;;;4072901;29;19915;-88
2023/04/13 00:30:41;;;;;;;;;;;6.40;73.30;;;;;;4071198;29;20296;-87
2023/04/13 00:32:42;;;;;;;;;;;6.50;73.40;;;;;;4073407;29;19915;-87
2023/04/13 00:34:44;;;;;;;;;;;6.40;73.50;;;;;;4073218;29;19919;-88
2023/04/13 00:36:44;;;;;;;;;;;6.40;73.40;;;;;;4084301;29;19906;-88
2023/04/13 00:38:49;;;;;;;;;;;6.30;73.50;;;;;;4074171;29;19923;-88
2023/04/13 00:40:50;;;;;;;;;;;6.30;73.50;;;;;;4045443;29;20010;-88
2023/04/13 00:42:51;;;;;;;;;;;6.40;73.60;;;;;;4046433;29;20329;-87
2023/04/13 00:45:12;;;;;;;;;;;6.30;73.50;;;;;;4071012;29;19970;-87
2023/04/13 00:47:34;;;;;;;;;;;6.40;73.40;;;;;;4058591;29;19920;-88
2023/04/13 00:49:55;;;;;;;;;;;6.30;73.10;;;;;;4069766;29;20286;-88
2023/04/13 00:52:17;;;;;;;;;;;6.30;73.20;;;;;;4059853;29;20281;-87
2023/04/13 00:54:37;;;;;;;;;;;6.20;73.00;;;;;;4052079;29;20674;-88
2023/04/13 00:57:01;;;;;;;;;;;6.20;73.00;;;;;;4057158;29;20219;-87
2023/04/13 00:59:02;;;;;;;;;;;6.20;72.90;;;;;;4074401;29;20013;-87
2023/04/13 01:01:03;;;;;;;;;;;6.30;73.00;;;;;;4059727;29;19915;-87
2023/04/13 01:03:03;;;;;;;;;;;6.20;73.00;;;;;;4060861;29;19907;-86
2023/04/13 01:05:05;;;;;;;;;;;6.20;72.90;;;;;;4073384;29;19915;-87
2023/04/13 01:07:08;;;;;;;;;;;6.10;72.80;;;;;;4061977;29;19935;-87
2023/04/13 01:09:18;;;;;;;;;;;6.20;72.80;;;;;;4075100;29;20379;-87
2023/04/13 01:11:28;;;;;;;;;;;6.20;72.80;;;;;;4086233;29;19915;-88
2023/04/13 01:13:51;;;;;;;;;;;6.10;72.70;;;;;;4059633;29;19911;-88
2023/04/13 01:15:53;;;;;;;;;;;6.10;72.60;;;;;;4075053;29;20309;-86
2023/04/13 01:17:57;;;;;;;;;;;6.00;72.60;;;;;;4058052;29;19943;-87
2023/04/13 01:20:11;;;;;;;;;;;6.10;72.70;;;;;;4061948;29;20428;-87
2023/04/13 01:22:13;;;;;;;;;;;6.00;72.70;;;;;;4076386;29;19911;-87
2023/04/13 01:24:31;;;;;;;;;;;6.00;72.70;;;;;;4062433;29;19945;-87
2023/04/13 01:26:37;;;;;;;;;;;6.00;72.70;;;;;;4077714;29;20361;-87
2023/04/13 01:28:38;;;;;;;;;;;6.10;72.90;;;;;;4062857;29;19922;-87
2023/04/13 01:30:39;;;;;;;;;;;6.00;72.90;;;;;;4063131;29;19915;-88
2023/04/13 01:32:41;;;;;;;;;;;6.00;72.80;;;;;;4062428;29;20416;-88
2023/04/13 01:34:44;;;;;;;;;;;5.90;72.70;;;;;;4075977;29;19978;-87
2023/04/13 01:36:46;;;;;;;;;;;6.00;72.70;;;;;;4076450;29;19915;-88
2023/04/13 01:38:47;;;;;;;;;;;5.90;72.80;;;;;;4076397;29;20400;-88
2023/04/13 01:40:51;;;;;;;;;;;6.00;73.00;;;;;;4075222;29;19914;-87
2023/04/13 01:42:52;;;;;;;;;;;6.00;73.00;;;;;;4077537;29;20039;-87
2023/04/13 01:44:53;;;;;;;;;;;5.90;72.90;;;;;;4059067;29;20331;-87
2023/04/13 01:46:57;;;;;;;;;;;6.00;73.10;;;;;;4067181;29;19958;-87
2023/04/13 01:49:01;;;;;;;;;;;6.00;73.10;;;;;;4087550;29;19921;-88
2023/04/13 01:51:23;;;;;;;;;;;5.90;73.00;;;;;;4072855;29;19919;-87
2023/04/13 01:53:37;;;;;;;;;;;5.90;73.10;;;;;;4083887;28;19927;-87
2023/04/13 01:55:59;;;;;;;;;;;5.90;73.40;;;;;;4076765;29;19919;-87
2023/04/13 01:58:18;;;;;;;;;;;5.90;72.90;;;;;;4063860;29;21474;-87
2023/04/13 02:00:38;;;;;;;;;;;5.90;72.90;;;;;;4064113;29;20342;-88
2023/04/13 02:02:59;;;;;;;;;;;5.80;73.00;;;;;;4074115;29;20403;-86
2023/04/13 02:05:20;;;;;;;;;;;5.80;73.00;;;;;;4072806;29;19978;-88
2023/04/13 02:07:41;;;;;;;;;;;5.80;73.00;;;;;;4075007;29;20382;-88
2023/04/13 02:09:58;;;;;;;;;;;5.80;72.90;;;;;;4078204;29;19918;-88
2023/04/13 02:12:06;;;;;;;;;;;5.70;72.90;;;;;;4071949;29;19915;-87
2023/04/13 02:14:26;;;;;;;;;;;5.70;73.00;;;;;;4075487;29;19914;-87
2023/04/13 02:16:47;;;;;;;;;;;5.70;73.00;;;;;;4063015;29;20013;-88
2023/04/13 02:19:08;;;;;;;;;;;5.80;73.10;;;;;;4073061;29;19971;-86
2023/04/13 02:21:28;;;;;;;;;;;5.70;73.10;;;;;;4063304;29;20153;-86
2023/04/13 02:23:49;;;;;;;;;;;5.70;73.10;;;;;;4074020;29;20473;-86
2023/04/13 02:26:11;;;;;;;;;;;5.70;73.10;;;;;;4072498;29;20436;-86
2023/04/13 02:28:33;;;;;;;;;;;5.70;72.90;;;;;;4072796;29;20400;-86
2023/04/13 02:30:54;;;;;;;;;;;5.60;72.90;;;;;;4074545;29;19942;-85
2023/04/13 02:33:14;;;;;;;;;;;5.70;73.70;;;;;;4071976;29;20373;-86
2023/04/13 02:35:37;;;;;;;;;;;5.50;72.80;;;;;;4081744;29;20297;-86
2023/04/13 02:37:39;;;;;;;;;;;5.60;72.90;;;;;;4060377;29;19919;-87
2023/04/13 02:39:39;;;;;;;;;;;5.60;73.00;;;;;;4061213;29;20278;-86
2023/04/13 02:41:41;;;;;;;;;;;5.60;73.10;;;;;;4063990;29;19971;-87
2023/04/13 02:43:42;;;;;;;;;;;5.60;73.00;;;;;;4075792;29;20139;-86
2023/04/13 02:45:43;;;;;;;;;;;5.50;73.00;;;;;;4047819;29;19941;-87
2023/04/13 02:48:01;;;;;;;;;;;5.50;73.10;;;;;;4078135;29;19926;-87
2023/04/13 02:50:21;;;;;;;;;;;5.50;73.10;;;;;;4061654;29;20133;-86
2023/04/13 02:52:42;;;;;;;;;;;5.50;73.20;;;;;;4058425;29;19911;-87
2023/04/13 02:55:04;;;;;;;;;;;5.50;73.40;;;;;;4069709;29;19997;-87
2023/04/13 02:57:04;;;;;;;;;;;5.40;73.20;;;;;;4073983;28;19919;-87
2023/04/13 02:59:26;;;;;;;;;;;5.40;73.30;;;;;;4058007;29;19915;-85
2023/04/13 03:01:47;;;;;;;;;;;5.40;73.30;;;;;;4062668;29;20160;-87
2023/04/13 03:03:58;;;;;;;;;;;5.30;73.30;;;;;;4076689;29;19937;-88
2023/04/13 03:06:18;;;;;;;;;;;5.30;73.20;;;;;;4060926;29;19926;-87
2023/04/13 03:08:39;;;;;;;;;;;5.30;73.30;;;;;;4073848;29;19914;-87
2023/04/13 03:11:02;;;;;;;;;;;5.30;73.30;;;;;;4072805;29;19926;-86
2023/04/13 03:13:23;;;;;;;;;;;5.20;73.30;;;;;;4072450;29;20289;-86
2023/04/13 03:15:44;;;;;;;;;;;5.20;73.30;;;;;;4060177;29;19918;-86
2023/04/13 03:18:05;;;;;;;;;;;5.10;74.00;;;;;;4073614;29;20166;-85
2023/04/13 03:20:27;;;;;;;;;;;5.10;73.30;;;;;;4060919;29;20056;-85
2023/04/13 03:22:48;;;;;;;;;;;5.10;73.30;;;;;;4060385;29;19981;-85
2023/04/13 03:25:09;;;;;;;;;;;5.20;73.30;;;;;;4071533;29;19915;-87
2023/04/13 03:27:29;;;;;;;;;;;5.00;73.20;;;;;;4072669;29;20009;-86
2023/04/13 03:29:50;;;;;;;;;;;5.00;73.30;;;;;;4071719;29;19989;-87
2023/04/13 03:31:50;;;;;;;;;;;5.10;73.40;;;;;;4059755;29;19911;-86
2023/04/13 03:33:59;;;;;;;;;;;5.10;73.40;;;;;;4073535;29;19935;-86
2023/04/13 03:36:00;;;;;;;;;;;4.90;73.30;;;;;;4064428;29;20008;-85
2023/04/13 03:38:20;;;;;;;;;;;5.00;73.40;;;;;;4068049;29;19918;-87
2023/04/13 03:40:24;;;;;;;;;;;4.90;73.30;;;;;;4062520;29;19914;-87
2023/04/13 03:42:25;;;;;;;;;;;4.90;73.40;;;;;;4075641;29;20228;-86
2023/04/13 03:44:26;;;;;;;;;;;4.90;73.50;;;;;;4071011;29;19965;-87
2023/04/13 03:46:26;;;;;;;;;;;4.90;73.50;;;;;;4074276;29;19992;-87
2023/04/13 03:48:29;;;;;;;;;;;4.80;73.50;;;;;;4058346;29;20006;-86
2023/04/13 03:50:49;;;;;;;;;;;4.90;73.60;;;;;;4073384;29;19917;-86
2023/04/13 03:53:05;;;;;;;;;;;4.90;73.60;;;;;;4058608;29;21168;-86
2023/04/13 03:55:26;;;;;;;;;;;4.80;73.60;;;;;;4069968;28;19911;-87
2023/04/13 03:57:46;;;;;;;;;;;4.80;73.60;;;;;;4073868;29;20134;-87
2023/04/13 04:00:12;;;;;;;;;;;4.80;73.60;;;;;;4059439;29;20048;-87
2023/04/13 04:02:33;;;;;;;;;;;4.70;73.50;;;;;;4058868;29;19919;-87
2023/04/13 04:04:53;;;;;;;;;;;4.70;73.60;;;;;;4062007;29;19915;-87
2023/04/13 04:07:15;;;;;;;;;;;4.70;73.60;;;;;;4073187;29;19915;-86
2023/04/13 04:09:35;;;;;;;;;;;4.70;73.60;;;;;;4060269;29;19970;-86
2023/04/13 04:11:56;;;;;;;;;;;4.60;73.50;;;;;;4073764;29;19982;-86
2023/04/13 04:14:16;;;;;;;;;;;4.60;73.50;;;;;;4068041;29;19910;-87
2023/04/13 04:16:37;;;;;;;;;;;4.60;73.60;;;;;;4058863;29;19937;-87
2023/04/13 04:18:58;;;;;;;;;;;4.60;73.60;;;;;;4075211;29;19911;-88
2023/04/13 04:21:20;;;;;;;;;;;4.60;73.70;;;;;;4068857;29;19911;-88
2023/04/13 04:23:41;;;;;;;;;;;4.50;73.50;;;;;;4072608;29;19927;-87
2023/04/13 04:26:02;;;;;;;;;;;4.60;73.70;;;;;;4073377;29;19915;-87
2023/04/13 04:28:22;;;;;;;;;;;4.50;73.50;;;;;;4063971;29;19911;-87
2023/04/13 04:30:44;;;;;;;;;;;4.50;73.60;;;;;;4063690;29;19915;-87
2023/04/13 04:33:06;;;;;;;;;;;4.40;73.60;;;;;;4074571;29;20039;-87
2023/04/13 04:35:32;;;;;;;;;;;4.50;73.70;;;;;;4060129;29;19942;-87
2023/04/13 04:37:54;;;;;;;;;;;4.50;73.70;;;;;;4061557;29;19919;-86
2023/04/13 04:40:14;;;;;;;;;;;4.40;73.70;;;;;;4074974;29;20118;-86
2023/04/13 04:42:36;;;;;;;;;;;4.40;73.70;;;;;;4062314;29;19983;-88
2023/04/13 04:44:57;;;;;;;;;;;4.40;73.60;;;;;;4063098;29;19911;-86
2023/04/13 04:47:18;;;;;;;;;;;4.30;73.70;;;;;;4082317;28;19931;-88
2023/04/13 04:49:38;;;;;;;;;;;4.40;73.70;;;;;;4076215;29;19918;-86
2023/04/13 04:51:59;;;;;;;;;;;4.40;73.80;;;;;;4065340;29;20002;-86
2023/04/13 04:54:20;;;;;;;;;;;4.30;73.80;;;;;;4062608;29;19989;-87
2023/04/13 04:56:41;;;;;;;;;;;4.30;73.90;;;;;;4064858;29;20376;-86
2023/04/13 04:58:42;;;;;;;;;;;4.20;73.90;;;;;;4082701;29;19918;-86
2023/04/13 05:00:42;;;;;;;;;;;4.30;74.00;;;;;;4080421;29;19918;-86
2023/04/13 05:02:43;;;;;;;;;;;4.30;74.00;;;;;;4062670;29;19978;-85
2023/04/13 05:04:43;;;;;;;;;;;4.30;74.80;;;;;;4065804;29;19911;-87
2023/04/13 05:06:44;;;;;;;;;;;4.40;74.20;;;;;;4071073;29;19914;-86
2023/04/13 05:08:45;;;;;;;;;;;4.30;74.20;;;;;;4067316;29;19917;-85
2023/04/13 05:10:45;;;;;;;;;;;4.30;74.30;;;;;;4065168;29;19919;-87
2023/04/13 05:12:46;;;;;;;;;;;4.40;74.40;;;;;;4073144;29;19917;-87
2023/04/13 05:14:47;;;;;;;;;;;4.40;74.60;;;;;;4049275;29;19911;-87
2023/04/13 05:16:50;;;;;;;;;;;4.40;74.60;;;;;;4064907;29;19945;-87
2023/04/13 05:19:11;;;;;;;;;;;4.40;74.60;;;;;;4066007;29;19915;-86
2023/04/13 05:21:32;;;;;;;;;;;4.40;74.70;;;;;;4064208;29;19985;-87
2023/04/13 05:23:52;;;;;;;;;;;4.50;74.80;;;;;;4068022;29;20382;-87
2023/04/13 05:26:14;;;;;;;;;;;4.50;74.90;;;;;;4215123;23;19918;-87
2023/04/13 05:28:35;;;;;;;;;;;4.50;74.90;;;;;;4104603;28;19910;-87
2023/04/13 05:30:59;;;;;;;;;;;4.60;75.10;;;;;;4095268;28;20380;-87
2023/04/13 05:33:20;;;;;;;;;;;4.60;75.10;;;;;;4086067;29;19954;-86
2023/04/13 05:35:41;;;;;;;;;;;4.70;75.20;;;;;;4082680;29;19915;-87
2023/04/13 05:37:43;;;;;;;;;;;4.80;75.30;;;;;;4068832;29;19935;-86
2023/04/13 05:39:44;;;;;;;;;;;4.80;75.40;;;;;;4075118;29;20001;-86
2023/04/13 05:41:44;;;;;;;;;;;4.90;75.50;;;;;;4089987;28;19914;-86
2023/04/13 05:44:05;;;;;;;;;;;4.90;75.60;;;;;;4078322;29;19923;-86
2023/04/13 05:46:12;;;;;;;;;;;4.90;75.70;;;;;;4071348;29;19915;-86
2023/04/13 05:48:33;;;;;;;;;;;4.90;75.70;;;;;;4076663;28;19972;-87
2023/04/13 05:50:57;;;;;;;;;;;5.10;75.80;;;;;;4077332;29;19978;-88
2023/04/13 05:53:21;;;;;;;;;;;5.10;75.90;;;;;;4074789;29;20001;-86
2023/04/13 05:55:42;;;;;;;;;;;5.10;76.00;;;;;;4073377;29;19919;-87
2023/04/13 05:57:48;;;;;;;;;;;5.20;76.00;;;;;;4072555;29;20292;-86
2023/04/13 06:00:09;;;;;;;;;;;5.40;76.20;;;;;;4077157;29;19998;-85
2023/04/13 06:02:37;;;;;;;;;;;5.30;76.10;;;;;;4072037;29;19926;-87
2023/04/13 06:05:00;;;;;;;;;;;5.40;76.10;;;;;;4073929;29;19921;-86
2023/04/13 06:07:06;;;;;;;;;;;5.60;76.50;;;;;;4074778;29;20544;-86
2023/04/13 06:09:27;;;;;;;;;;;5.60;76.50;;;;;;4078417;29;20013;-86
2023/04/13 06:11:47;;;;;;;;;;;5.70;76.50;;;;;;4087552;28;20024;-86
2023/04/13 06:14:08;;;;;;;;;;;5.80;76.40;;;;;;4080181;29;19911;-86
2023/04/13 06:16:28;;;;;;;;;;;5.80;76.30;;;;;;4075745;29;19911;-88
2023/04/13 06:18:49;;;;;;;;;;;6.00;76.50;;;;;;4077382;29;19914;-88
2023/04/13 06:21:10;;;;;;;;;;;6.00;76.40;;;;;;4085334;29;19946;-87
2023/04/13 06:23:33;;;;;;;;;;;6.00;76.40;;;;;;4081543;29;20503;-87
2023/04/13 06:25:55;;;;;;;;;;;6.00;76.30;;;;;;4077945;29;19910;-89
2023/04/13 06:28:16;;;;;;;;;;;6.20;76.40;;;;;;4078174;29;19958;-88
2023/04/13 06:30:37;;;;;;;;;;;6.30;76.40;;;;;;4087819;28;19973;-88
2023/04/13 06:32:43;;;;;;;;;;;6.30;76.30;;;;;;4072627;29;19907;-88
2023/04/13 06:34:44;;;;;;;;;;;6.40;76.20;;;;;;4075752;29;19917;-89
2023/04/13 06:37:05;;;;;;;;;;;6.40;76.10;;;;;;4074128;29;20190;-87
2023/04/13 06:39:26;;;;;;;;;;;6.60;76.00;;;;;;4071526;29;19925;-88
2023/04/13 06:41:47;;;;;;;;;;;6.60;75.90;;;;;;4076610;29;19997;-88
2023/04/13 06:44:07;;;;;;;;;;;6.70;75.80;;;;;;4078117;29;20014;-88
2023/04/13 06:46:28;;;;;;;;;;;6.60;75.70;;;;;;4077689;29;19918;-89
2023/04/13 06:48:49;;;;;;;;;;;6.70;75.80;;;;;;4074154;29;19915;-88
2023/04/13 06:51:13;;;;;;;;;;;6.70;75.80;;;;;;4077075;29;19914;-89
2023/04/13 06:53:33;;;;;;;;;;;6.80;76.00;;;;;;4076730;29;19910;-89
2023/04/13 06:55:54;;;;;;;;;;;6.90;76.10;;;;;;4075995;29;19907;-88
2023/04/13 06:58:15;;;;;;;;;;;7.10;76.10;;;;;;4071761;29;19922;-87
2023/04/13 07:00:16;;;;;;;;;;;7.20;76.30;;;;;;4077371;29;20383;-88
2023/04/13 07:02:17;;;;;;;;;;;7.10;76.10;;;;;;4078243;29;19913;-88
2023/04/13 07:04:18;;;;;;;;;;;7.30;76.10;;;;;;4076819;29;20625;-87
2023/04/13 07:06:22;;;;;;;;;;;7.40;76.10;;;;;;4062898;29;19915;-89
2023/04/13 07:08:22;;;;;;;;;;;7.40;76.10;;;;;;4091717;28;19911;-89
2023/04/13 07:10:23;;;;;;;;;;;7.40;76.00;;;;;;4075266;29;20343;-87
2023/04/13 07:12:24;;;;;;;;;;;7.50;76.10;;;;;;4060029;29;19916;-88
2023/04/13 07:14:25;;;;;;;;;;;7.60;76.00;;;;;;4081210;29;19910;-88
2023/04/13 07:16:25;;;;;;;;;;;7.60;76.00;;;;;;4064735;29;19926;-90
2023/04/13 07:18:26;;;;;;;;;;;7.70;75.80;;;;;;4059935;29;20838;-87
2023/04/13 07:20:29;;;;;;;;;;;7.80;75.60;;;;;;4055796;29;20362;-89
2023/04/13 07:22:31;;;;;;;;;;;7.80;75.40;;;;;;4059928;29;20024;-88
2023/04/13 07:24:32;;;;;;;;;;;7.90;75.60;;;;;;4070342;29;19923;-87
2023/04/13 07:26:33;;;;;;;;;;;8.00;75.50;;;;;;4073513;29;20001;-87
2023/04/13 07:28:34;;;;;;;;;;;8.00;75.40;;;;;;4089992;28;19925;-89
2023/04/13 07:30:45;;;;;;;;;;;8.10;75.30;;;;;;4064116;29;20020;-89
2023/04/13 07:32:46;;;;;;;;;;;8.10;75.10;;;;;;4071984;29;19989;-89
2023/04/13 07:35:06;;;;;;;;;;;8.30;75.00;;;;;;4075922;29;19907;-90
2023/04/13 07:37:28;;;;;;;;;;;8.30;75.00;;;;;;4072098;29;19915;-89
2023/04/13 07:39:49;;;;;;;;;;;8.30;74.70;;;;;;4073492;29;19943;-90
2023/04/13 07:42:10;;;;;;;;;;;8.50;74.30;;;;;;4076643;29;19918;-90
2023/04/13 07:44:39;;;;;;;;;;;8.40;74.20;;;;;;4085756;29;19907;-90
2023/04/13 07:47:00;;;;;;;;;;;8.50;74.10;;;;;;4078191;29;20015;-88
2023/04/13 07:49:22;;;;;;;;;;;8.60;74.30;;;;;;4074365;29;19910;-89
2023/04/13 07:51:45;;;;;;;;;;;8.70;74.20;;;;;;4073916;29;19917;-89
2023/04/13 07:54:06;;;;;;;;;;;8.70;73.90;;;;;;4087160;28;19921;-89
2023/04/13 07:56:10;;;;;;;;;;;8.70;73.80;;;;;;4074412;29;19930;-88
2023/04/13 07:58:11;;;;;;;;;;;8.80;73.70;;;;;;4081125;29;19918;-88
2023/04/13 08:02:58;;;;;;;;;;;8.90;73.30;;;;;;4078500;29;20067;-88
2023/04/13 08:05:19;;;;;;;;;;;8.90;73.10;;;;;;4074797;29;19997;-90
2023/04/13 08:07:30;;;;;;;;;;;9.00;73.00;;;;;;4060052;29;19922;-90
2023/04/13 08:09:52;;;;;;;;;;;9.10;72.80;;;;;;4077085;29;20001;-89
2023/04/13 08:12:13;;;;;;;;;;;9.00;72.50;;;;;;4073635;29;20005;-90
2023/04/13 08:14:33;;;;;;;;;;;9.10;72.10;;;;;;4079418;29;19969;-90
2023/04/13 08:16:55;;;;;;;;;;;9.10;71.90;;;;;;4074530;29;19914;-88
2023/04/13 08:19:18;;;;;;;;;;;9.10;71.50;;;;;;4076819;29;19951;-91
2023/04/13 08:21:46;;;;;;;;;;;9.00;71.30;;;;;;4075544;29;20026;-89
2023/04/13 08:24:08;;;;;;;;;;;9.00;70.80;;;;;;4077104;29;19962;-88
2023/04/13 08:26:28;;;;;;;;;;;9.00;70.90;;;;;;4075805;29;19914;-89
2023/04/13 08:28:51;;;;;;;;;;;9.00;70.90;;;;;;4079770;29;19913;-90
2023/04/13 08:31:12;;;;;;;;;;;9.10;70.70;;;;;;4079688;29;20550;-89
2023/04/13 08:33:33;;;;;;;;;;;9.00;70.90;;;;;;4082429;29;20216;-88
2023/04/13 08:35:54;;;;;;;;;;;9.00;70.90;;;;;;4081835;29;19943;-89
2023/04/13 08:38:15;;;;;;;;;;;9.10;71.00;;;;;;4079113;29;19918;-90
2023/04/13 08:40:39;;;;;;;;;;;9.00;70.90;;;;;;4080825;29;20022;-90
2023/04/13 08:43:00;;;;;;;;;;;9.00;70.80;;;;;;4082240;29;20356;-89
2023/04/13 08:45:02;;;;;;;;;;;9.10;70.90;;;;;;4086512;29;19921;-90
2023/04/13 08:47:03;;;;;;;;;;;9.10;70.80;;;;;;4082634;28;19923;-88
2023/04/13 08:49:06;;;;;;;;;;;9.00;70.80;;;;;;4080299;29;20017;-90
2023/04/13 08:51:10;;;;;;;;;;;9.00;70.70;;;;;;4074478;29;19919;-89
2023/04/13 08:53:15;;;;;;;;;;;9.10;70.70;;;;;;4082776;28;19907;-88
2023/04/13 08:55:19;;;;;;;;;;;9.10;70.60;;;;;;4083845;29;19934;-88
2023/04/13 08:57:51;;;;;;;;;;;;;;;;;;;;;
2023/04/13 09:00:20;;;;;;;;;;;9.10;70.60;;;;;;4093040;29;19915;-88
2023/04/13 09:02:59;;;;;;;;;;;9.10;70.50;;;;;;4095833;29;19918;-90
2023/04/13 09:05:25;;;;;;;;;;;9.00;70.40;;;;;;4089939;29;19914;-90
2023/04/13 09:07:56;;;;;;;;;;;9.10;70.30;;;;;;4094235;29;20053;-90
2023/04/13 09:10:20;;;;;;;;;;;9.00;70.20;;;;;;4104993;28;19973;-88
2023/04/13 09:12:44;;;;;;;;;;;9.00;70.20;;;;;;4087213;29;19915;-89
2023/04/13 09:15:08;;;;;;;;;;;9.10;70.30;;;;;;4082439;29;20006;-90
2023/04/13 09:17:21;;;;;;;;;;;9.00;70.40;;;;;;4065363;29;19966;-89
2023/04/13 09:19:29;;;;;;;;;;;9.00;70.40;;;;;;4079487;29;19954;-89
2023/04/13 09:21:59;;;;;;;;;;;9.00;71.20;;;;;;4078619;29;20152;-88
2023/04/13 09:24:00;;;;;;;;;;;9.00;70.50;;;;;;4063132;29;19919;-89
2023/04/13 09:26:08;;;;;;;;;;;9.00;70.60;;;;;;4047970;29;19927;-89
2023/04/13 09:28:15;;;;;;;;;;;9.00;70.50;;;;;;4044329;29;20016;-89
2023/04/13 09:30:30;;;;;;;;;;;9.00;70.40;;;;;;4059855;29;20443;-87
2023/04/13 09:32:46;;;;;;;;;;;9.00;70.50;;;;;;4058797;29;20116;-88
2023/04/13 09:35:07;;;;;;;;;;;9.00;70.40;;;;;;4063014;29;19914;-89
2023/04/13 09:37:28;;;;;;;;;;;8.90;70.40;;;;;;4071641;29;19914;-86
2023/04/13 09:39:29;;;;;;;;;;;9.10;70.70;;;;;;4040868;29;19915;-89
2023/04/13 09:41:50;;;;;;;;;;;9.00;70.70;;;;;;4080163;29;19915;-89
2023/04/13 09:44:19;;;;;;;;;;;9.00;70.80;;;;;;4075560;29;19926;-90
2023/04/13 09:46:19;;;;;;;;;;;9.00;70.80;;;;;;4058690;29;19922;-88
2023/04/13 09:48:43;;;;;;;;;;;9.10;70.80;;;;;;4080114;29;19922;-87
2023/04/13 09:51:05;;;;;;;;;;;9.00;70.80;;;;;;4077315;29;19922;-85
2023/04/13 09:53:43;;;;;;;;;;;9.00;70.90;;;;;;4079601;29;19914;-88
2023/04/13 09:56:16;;;;;;;;;;;9.10;71.10;;;;;;4065626;29;19958;-89
2023/04/13 09:58:43;;;;;;;;;;;9.10;71.20;;;;;;4081597;29;19954;-88
2023/04/13 10:01:04;;;;;;;;;;;9.20;71.40;;;;;;4078600;29;19965;-88
2023/04/13 10:03:26;;;;;;;;;;;9.20;71.40;;;;;;4079328;29;19915;-89
2023/04/13 10:05:47;;;;;;;;;;;9.20;71.40;;;;;;4071887;29;20114;-89
2023/04/13 10:07:48;;;;;;;;;;;9.30;71.20;;;;;;4070655;29;19911;-88
2023/04/13 10:09:51;;;;;;;;;;;9.30;71.10;;;;;;4072979;29;19986;-87
2023/04/13 10:11:52;;;;;;;;;;;9.30;70.90;;;;;;4072925;29;19946;-88
2023/04/13 10:14:07;;;;;;;;;;;9.30;70.90;;;;;;4062378;29;19925;-87
2023/04/13 10:16:08;;;;;;;;;;;9.30;70.90;;;;;;4078341;29;19942;-87
2023/04/13 10:18:15;;;;;;;;;;;9.30;70.90;;;;;;4076837;29;20255;-86
2023/04/13 10:20:19;;;;;;;;;;;9.30;70.90;;;;;;4058044;29;20001;-88
2023/04/13 10:22:25;;;;;;;;;;;9.30;70.90;;;;;;4088984;29;19926;-88
2023/04/13 10:24:27;;;;;;;;;;;9.20;70.80;;;;;;4079582;29;19914;-88
2023/04/13 10:26:39;;;;;;;;;;;9.30;70.90;;;;;;4081637;28;19945;-87
2023/04/13 10:29:05;;;;;;;;;;;9.30;70.90;;;;;;4083535;29;20349;-87
2023/04/13 10:31:07;;;;;;;;;;;9.30;71.20;;;;;;4082630;29;19974;-87
2023/04/13 10:33:08;;;;;;;;;;;9.40;71.50;;;;;;4078933;29;20022;-89
2023/04/13 10:35:18;;;;;;;;;;;9.40;71.70;;;;;;4088295;29;19918;-87
2023/04/13 10:37:21;;;;;;;;;;;9.50;72.00;;;;;;4091805;29;19926;-89
2023/04/13 10:39:26;;;;;;;;;;;9.50;72.10;;;;;;4093525;28;20430;-88
2023/04/13 10:41:27;;;;;;;;;;;9.60;72.20;;;;;;4061533;29;19911;-88
2023/04/13 10:43:29;;;;;;;;;;;9.70;72.30;;;;;;4074639;29;19918;-89
2023/04/13 10:45:36;;;;;;;;;;;9.70;72.30;;;;;;4065166;29;19954;-89
2023/04/13 10:47:37;;;;;;;;;;;9.70;72.50;;;;;;4084804;29;20353;-88
2023/04/13 10:49:39;;;;;;;;;;;9.90;72.60;;;;;;4059168;29;19919;-87
2023/04/13 10:51:49;;;;;;;;;;;10.00;72.50;;;;;;4073418;29;19915;-89
2023/04/13 10:53:50;;;;;;;;;;;10.00;72.40;;;;;;4062359;29;19915;-90
2023/04/13 10:56:01;;;;;;;;;;;10.10;72.30;;;;;;4075555;29;20028;-89
2023/04/13 10:58:12;;;;;;;;;;;10.30;72.20;;;;;;4060150;29;19926;-86
2023/04/13 11:00:20;;;;;;;;;;;10.20;71.90;;;;;;4076742;29;19921;-88
2023/04/13 11:02:50;;;;;;;;;;;10.30;71.70;;;;;;4064137;29;20049;-88
2023/04/13 11:04:51;;;;;;;;;;;10.40;71.40;;;;;;4074609;29;19921;-88
2023/04/13 11:06:51;;;;;;;;;;;10.50;71.50;;;;;;4062232;29;20187;-88
2023/04/13 11:09:00;;;;;;;;;;;10.50;71.40;;;;;;4066118;29;19922;-88
2023/04/13 11:11:01;;;;;;;;;;;10.50;71.20;;;;;;4076922;29;19942;-89
2023/04/13 11:13:02;;;;;;;;;;;10.60;71.20;;;;;;4056027;29;19914;-91
2023/04/13 11:15:31;;;;;;;;;;;10.60;71.20;;;;;;4070676;29;19919;-89
2023/04/13 11:17:32;;;;;;;;;;;10.60;71.10;;;;;;4057824;29;19919;-88
2023/04/13 11:19:33;;;;;;;;;;;10.70;71.30;;;;;;4052784;29;19920;-89
2023/04/13 11:21:44;;;;;;;;;;;10.80;71.40;;;;;;4079900;28;20348;-88
2023/04/13 11:23:52;;;;;;;;;;;10.80;71.20;;;;;;4088915;28;20001;-88
2023/04/13 11:26:00;;;;;;;;;;;10.90;70.80;;;;;;4015275;29;1705830;-89
2023/04/13 11:28:02;;;;;;;;;;;10.90;70.50;;;;;;4077022;29;19907;-87
2023/04/13 11:30:04;;;;;;;;;;;11.00;70.30;;;;;;4069547;29;20729;-88
2023/04/13 11:32:15;;;;;;;;;;;11.00;70.20;;;;;;4072269;29;19973;-90
2023/04/13 11:34:50;;;;;;;;;;;;;;;;;;;;;
2023/04/13 11:37:27;;;;;;;;;;;11.10;69.10;;;;;;4073226;29;19907;-90
2023/04/13 11:39:27;;;;;;;;;;;11.20;69.80;;;;;;4073509;29;20266;-90
2023/04/13 11:41:31;;;;;;;;;;;11.30;69.30;;;;;;4068334;29;20380;-89
2023/04/13 11:43:44;;;;;;;;;;;11.30;69.60;;;;;;4057598;29;19982;-87
2023/04/13 11:45:50;;;;;;;;;;;11.30;69.40;;;;;;4055926;29;20421;-89
2023/04/13 11:47:52;;;;;;;;;;;11.40;68.90;;;;;;4084335;28;19920;-89
2023/04/13 11:49:53;;;;;;;;;;;11.40;68.80;;;;;;4077227;29;19915;-87
2023/04/13 11:53:59;;;;;;;;;;;11.50;68.50;;;;;;4085099;23;20478;-89
2023/04/13 11:56:01;;;;;;;;;;;11.50;68.40;;;;;;4074468;29;19914;-88
2023/04/13 11:58:06;;;;;;;;;;;11.60;68.40;;;;;;4077540;29;19919;-88
2023/04/13 12:00:17;;;;;;;;;;;11.50;68.20;;;;;;4077695;29;19942;-90
2023/04/13 12:02:28;;;;;;;;;;;11.50;68.30;;;;;;4086299;28;19977;-90
2023/04/13 12:04:35;;;;;;;;;;;11.60;68.10;;;;;;4059266;29;19974;-92
2023/04/13 12:07:19;;;;;;;;;;;11.70;68.10;;;;;;4081870;29;20331;-91
2023/04/13 12:09:41;;;;;;;;;;;11.70;68.10;;;;;;4073837;29;19914;-91
2023/04/13 12:11:42;;;;;;;;;;;11.80;67.80;;;;;;4089757;28;19973;-88
2023/04/13 12:13:52;;;;;;;;;;;11.70;67.60;;;;;;4074589;29;19977;-89
2023/04/13 12:16:08;;;;;;;;;;;11.80;67.50;;;;;;4085298;28;19914;-90
2023/04/13 12:18:19;;;;;;;;;;;11.90;66.70;;;;;;4076958;29;20381;-89
2023/04/13 12:20:33;;;;;;;;;;;11.80;66.70;;;;;;4082733;28;19911;-92
2023/04/13 12:22:35;;;;;;;;;;;11.80;66.40;;;;;;4086909;28;19939;-88
2023/04/13 12:24:41;;;;;;;;;;;11.80;66.00;;;;;;4089382;28;19922;-89
2023/04/13 12:26:45;;;;;;;;;;;11.80;65.80;;;;;;4096824;28;19926;-90
2023/04/13 12:28:48;;;;;;;;;;;11.80;65.60;;;;;;4080669;29;19979;-88
2023/04/13 12:31:10;;;;;;;;;;;11.80;65.30;;;;;;4094795;28;19915;-89
2023/04/13 12:33:12;;;;;;;;;;;11.70;65.30;;;;;;4082457;29;20705;-90
2023/04/13 12:35:13;;;;;;;;;;;11.70;65.40;;;;;;4076422;29;19911;-90
2023/04/13 12:37:14;;;;;;;;;;;11.80;65.60;;;;;;4078810;29;19977;-89
2023/04/13 12:39:18;;;;;;;;;;;11.80;65.90;;;;;;4076898;29;19914;-91
2023/04/13 12:41:55;;;;;;;;;;;11.80;65.80;;;;;;4064293;29;19915;-88
2023/04/13 12:43:56;;;;;;;;;;;11.80;65.90;;;;;;4046321;29;19934;-91
2023/04/13 12:46:05;;;;;;;;;;;11.90;66.10;;;;;;4031353;29;19911;-89
2023/04/13 12:48:07;;;;;;;;;;;11.90;66.00;;;;;;4047400;29;19955;-91
2023/04/13 12:50:09;;;;;;;;;;;12.00;65.90;;;;;;4048705;29;20306;-90
2023/04/13 12:52:10;;;;;;;;;;;12.00;66.50;;;;;;4061440;29;20010;-91
2023/04/13 12:54:12;;;;;;;;;;;12.10;65.60;;;;;;4051335;29;19963;-90
2023/04/13 12:56:12;;;;;;;;;;;12.20;65.80;;;;;;4061036;29;20060;-90
2023/04/13 12:58:19;;;;;;;;;;;12.30;65.40;;;;;;4050815;29;19925;-90
2023/04/13 13:00:32;;;;;;;;;;;12.30;64.50;;;;;;4050253;29;19920;-90
2023/04/13 13:02:32;;;;;;;;;;;12.30;62.90;;;;;;4065625;29;19971;-90
2023/04/13 13:04:33;;;;;;;;;;;12.40;64.10;;;;;;4048124;29;20013;-88